createdAt,value
2022-08-21T00:00:19.114Z,5.50
2022-08-21T00:02:55.362Z,5.00
2022-08-21T00:05:23.284Z,5.50
2022-08-21T00:07:49.837Z,6.03
2022-08-21T00:10:17.162Z,5.53
2022-08-21T00:12:44.301Z,5.32
2022-08-21T00:15:14.020Z,5.80
2022-08-21T00:17:40.617Z,6.43
2022-08-21T00:20:09.697Z,5.72
2022-08-21T00:22:36.937Z,6.00
2022-08-21T00:25:05.416Z,5.70
2022-08-21T00:27:31.836Z,7.25
2022-08-21T00:29:58.390Z,5.32
2022-08-21T00:32:26.245Z,5.30
2022-08-21T00:34:53.072Z,6.15
2022-08-21T00:37:19.860Z,5.50
2022-08-21T00:39:46.415Z,5.78
2022-08-21T00:42:15.889Z,5.90
2022-08-21T00:44:44.700Z,4.85
2022-08-21T00:47:11.758Z,4.82
2022-08-21T00:49:39.478Z,5.22
2022-08-21T00:52:08.504Z,5.68
2022-08-21T00:54:35.087Z,5.10
2022-08-21T00:57:06.339Z,5.80
2022-08-21T00:59:36.176Z,6.30
2022-08-21T01:02:03.288Z,5.40
2022-08-21T01:04:29.739Z,5.70
2022-08-21T01:06:56.169Z,6.05
2022-08-21T01:09:22.664Z,6.00
2022-08-21T01:11:49.206Z,5.45
2022-08-21T01:14:16.328Z,5.63
2022-08-21T01:16:46.103Z,5.80
2022-08-21T01:19:13.769Z,7.15
2022-08-21T01:21:40.396Z,6.18
2022-08-21T01:24:06.951Z,5.53
2022-08-21T01:26:38.164Z,5.38
2022-08-21T01:29:31.715Z,5.80
2022-08-21T01:32:00.336Z,6.93
2022-08-21T01:34:26.831Z,6.20
2022-08-21T01:36:53.246Z,5.38
2022-08-21T01:39:19.804Z,6.60
2022-08-21T01:41:46.445Z,6.72
2022-08-21T01:44:12.897Z,6.05
2022-08-21T01:46:39.318Z,5.65
2022-08-21T01:49:06.334Z,5.65
2022-08-21T01:51:33.130Z,6.07
2022-08-21T01:53:59.574Z,7.18
2022-08-21T01:56:26.950Z,6.35
2022-08-21T01:58:53.367Z,6.35
2022-08-21T02:01:19.863Z,6.38
2022-08-21T02:03:46.386Z,6.40
2022-08-21T02:06:15.813Z,7.45
2022-08-21T02:08:42.231Z,6.88
2022-08-21T02:11:08.647Z,6.22
2022-08-21T02:13:35.102Z,6.40
2022-08-21T02:16:01.494Z,6.50
2022-08-21T02:18:27.911Z,6.93
2022-08-21T02:20:56.302Z,7.00
2022-08-21T02:23:27.263Z,7.05
2022-08-21T02:26:05.548Z,6.57
2022-08-21T02:28:32.410Z,6.80
2022-08-21T02:30:59.408Z,8.40
2022-08-21T02:33:26.830Z,8.30
2022-08-21T02:35:54.167Z,7.40
2022-08-21T02:38:23.887Z,7.68
2022-08-21T02:40:51.879Z,8.52
2022-08-21T02:43:20.748Z,7.80
2022-08-21T02:45:47.754Z,7.68
2022-08-21T02:48:17.996Z,7.40
2022-08-21T02:50:49.678Z,7.80
2022-08-21T02:53:17.522Z,7.60
2022-08-21T02:55:49.336Z,7.05
2022-08-21T02:58:18.801Z,7.63
2022-08-21T03:00:45.741Z,7.38
2022-08-21T03:03:14.587Z,7.18
2022-08-21T03:05:41.311Z,7.60
2022-08-21T03:08:10.403Z,8.43
2022-08-21T03:10:38.660Z,7.80
2022-08-21T03:13:05.056Z,9.52
2022-08-21T03:15:32.302Z,7.88
2022-08-21T03:17:58.745Z,7.88
2022-08-21T03:20:27.186Z,7.75
2022-08-21T03:22:54.319Z,9.10
2022-08-21T03:25:39.989Z,8.15
2022-08-21T03:28:11.767Z,7.75
2022-08-21T03:30:40.663Z,7.93
2022-08-21T03:33:07.066Z,8.07
2022-08-21T03:35:33.537Z,7.80
2022-08-21T03:38:00.183Z,7.47
2022-08-21T03:40:26.900Z,7.68
2022-08-21T03:42:53.312Z,8.15
2022-08-21T03:45:20.443Z,8.05
2022-08-21T03:48:01.755Z,8.13
2022-08-21T03:50:31.522Z,6.95
2022-08-21T03:52:58.777Z,7.57
2022-08-21T03:55:26.304Z,9.20
2022-08-21T03:57:52.747Z,8.77
2022-08-21T04:00:19.963Z,8.80
2022-08-21T04:02:46.871Z,8.13
2022-08-21T04:05:15.192Z,7.78
2022-08-21T04:07:41.631Z,7.72
2022-08-21T04:10:08.869Z,8.27
2022-08-21T04:12:35.438Z,7.30
2022-08-21T04:15:02.803Z,8.95
2022-08-21T04:17:29.228Z,8.60
2022-08-21T04:19:55.958Z,9.05
2022-08-21T04:22:22.382Z,8.20
2022-08-21T04:24:48.865Z,7.47
2022-08-21T04:27:15.284Z,8.10
2022-08-21T04:29:41.829Z,8.40
2022-08-21T04:32:08.299Z,8.13
2022-08-21T04:34:34.763Z,8.30
2022-08-21T04:37:01.184Z,10.40
2022-08-21T04:39:29.833Z,9.27
2022-08-21T04:41:56.555Z,8.60
2022-08-21T04:44:22.958Z,8.32
2022-08-21T04:46:49.379Z,11.02
2022-08-21T04:49:15.810Z,9.80
2022-08-21T04:51:42.263Z,10.40
2022-08-21T04:54:12.677Z,10.00
2022-08-21T04:57:01.316Z,9.57
2022-08-21T04:59:33.216Z,8.77
2022-08-21T05:02:01.388Z,9.20
2022-08-21T05:04:31.112Z,9.57
2022-08-21T05:07:00.560Z,10.00
2022-08-21T05:09:27.951Z,10.40
2022-08-21T05:11:55.458Z,10.07
2022-08-21T05:14:21.864Z,10.50
2022-08-21T05:16:48.337Z,9.27
2022-08-21T05:19:14.789Z,9.68
2022-08-21T05:21:43.193Z,10.00
2022-08-21T05:24:10.233Z,10.38
2022-08-21T05:26:38.314Z,9.73
2022-08-21T05:29:12.962Z,10.05
2022-08-21T05:31:39.615Z,10.20
2022-08-21T05:34:07.249Z,9.70
2022-08-21T05:36:33.612Z,9.70
2022-08-21T05:39:00.039Z,9.88
2022-08-21T05:41:26.482Z,9.55
2022-08-21T05:43:52.947Z,9.93
2022-08-21T05:46:19.313Z,10.85
2022-08-21T05:48:45.716Z,10.52
2022-08-21T05:51:14.375Z,11.82
2022-08-21T05:53:43.011Z,12.00
2022-08-21T05:56:10.258Z,12.45
2022-08-21T05:58:36.633Z,11.45
2022-08-21T06:01:04.017Z,12.65
2022-08-21T06:03:33.228Z,13.88
2022-08-21T06:05:59.644Z,15.55
2022-08-21T06:08:26.403Z,13.45
2022-08-21T06:10:53.599Z,14.52
2022-08-21T06:13:21.304Z,13.93
2022-08-21T06:15:48.063Z,16.48
2022-08-21T06:18:14.515Z,16.25
2022-08-21T06:20:41.324Z,14.70
2022-08-21T06:23:08.109Z,14.70
2022-08-21T06:25:34.886Z,14.52
2022-08-21T06:28:09.736Z,13.93
2022-08-21T06:30:38.295Z,15.07
2022-08-21T06:33:05.323Z,13.85
2022-08-21T06:35:31.725Z,13.85
2022-08-21T06:37:58.705Z,13.68
2022-08-21T06:40:26.429Z,14.05
2022-08-21T06:42:52.949Z,14.73
2022-08-21T06:45:19.899Z,14.35
2022-08-21T06:47:46.319Z,15.40
2022-08-21T06:50:13.485Z,15.40
2022-08-21T06:52:40.248Z,17.17
2022-08-21T06:55:09.282Z,18.75
2022-08-21T06:57:36.007Z,19.35
2022-08-21T07:00:05.634Z,14.75
2022-08-21T07:02:34.157Z,14.80
2022-08-21T07:05:00.595Z,13.82
2022-08-21T07:07:26.983Z,12.13
2022-08-21T07:09:53.388Z,12.88
2022-08-21T07:12:20.512Z,12.45
2022-08-21T07:14:46.916Z,10.82
2022-08-21T07:17:13.303Z,9.95
2022-08-21T07:19:39.727Z,10.40
2022-08-21T07:22:06.161Z,9.70
2022-08-21T07:24:32.588Z,9.10
2022-08-21T07:26:59.028Z,9.40
2022-08-21T07:29:25.466Z,9.50
2022-08-21T07:31:51.860Z,9.52
2022-08-21T07:34:18.368Z,8.77
2022-08-21T07:36:45.012Z,8.30
2022-08-21T07:39:11.632Z,9.15
2022-08-21T07:41:38.517Z,8.57
2022-08-21T07:44:04.915Z,8.40
2022-08-21T07:46:33.132Z,8.30
2022-08-21T07:48:59.536Z,8.95
2022-08-21T07:51:27.916Z,11.13
2022-08-21T07:53:56.691Z,9.68
2022-08-21T07:56:23.172Z,9.57
2022-08-21T07:58:49.993Z,10.23
2022-08-21T08:01:16.449Z,10.10
2022-08-21T08:03:42.914Z,11.05
2022-08-21T08:06:13.125Z,10.30
2022-08-21T08:08:41.521Z,10.15
2022-08-21T08:11:11.235Z,12.52
2022-08-21T08:13:42.770Z,10.68
2022-08-21T08:16:09.386Z,11.32
2022-08-21T08:18:35.848Z,9.77
2022-08-21T08:21:02.282Z,9.85
2022-08-21T08:23:28.704Z,11.20
2022-08-21T08:25:55.110Z,10.32
2022-08-21T08:28:22.741Z,8.65
2022-08-21T08:30:50.438Z,9.57
2022-08-21T08:33:17.896Z,8.35
2022-08-21T08:35:48.343Z,9.10
2022-08-21T08:38:20.964Z,8.00
2022-08-21T08:41:13.932Z,7.70
2022-08-21T08:43:42.330Z,6.70
2022-08-21T08:46:14.342Z,6.28
2022-08-21T08:52:00.356Z,6.32
2022-08-21T08:54:38.275Z,5.07
2022-08-21T08:57:08.967Z,4.65
2022-08-21T08:59:50.319Z,3.97
2022-08-21T09:02:17.700Z,4.53
2022-08-21T09:04:46.640Z,4.35
2022-08-21T09:07:28.945Z,3.90
2022-08-21T09:10:13.489Z,4.95
2022-08-21T09:13:14.175Z,3.00
2022-08-21T09:16:05.011Z,2.85
2022-08-21T09:18:46.352Z,3.30
2022-08-21T09:21:32.985Z,3.70
2022-08-21T09:24:28.128Z,3.22
2022-08-21T09:27:12.428Z,3.33
2022-08-21T09:29:44.723Z,3.22
2022-08-21T09:32:24.272Z,3.92
2022-08-21T09:35:09.961Z,2.58
2022-08-21T09:37:52.710Z,3.35
2022-08-21T09:40:44.871Z,2.22
2022-08-21T09:43:26.278Z,3.47
2022-08-21T09:46:08.681Z,2.50
2022-08-21T09:48:53.272Z,2.47
2022-08-21T09:51:28.648Z,2.45
2022-08-21T09:54:07.273Z,2.63
2022-08-21T09:57:13.275Z,2.42
2022-08-21T09:59:40.184Z,1.98
2022-08-21T10:02:27.943Z,2.58
2022-08-21T10:04:57.340Z,2.83
2022-08-21T10:07:25.599Z,2.08
2022-08-21T10:10:02.420Z,3.20
2022-08-21T10:12:55.282Z,2.67
2022-08-21T10:15:53.953Z,2.30
2022-08-21T10:18:39.487Z,2.25
2022-08-21T10:21:21.219Z,1.90
2022-08-21T10:24:02.035Z,3.13
2022-08-21T10:27:00.890Z,2.25
2022-08-21T10:29:56.950Z,2.33
2022-08-21T10:32:38.262Z,2.63
2022-08-21T10:35:34.994Z,2.35
2022-08-21T10:38:48.877Z,1.70
2022-08-21T10:41:36.971Z,2.42
2022-08-21T10:44:29.583Z,2.50
2022-08-21T10:47:09.772Z,2.20
2022-08-21T10:49:36.077Z,1.80
2022-08-21T10:52:21.252Z,2.35
2022-08-21T10:54:53.831Z,1.73
2022-08-21T10:57:32.257Z,2.15
2022-08-21T11:00:12.322Z,3.17
2022-08-21T11:02:48.143Z,2.15
2022-08-21T11:05:28.346Z,1.65
2022-08-21T11:07:59.634Z,1.85
2022-08-21T11:10:32.268Z,1.90
2022-08-21T11:13:34.233Z,1.95
2022-08-21T11:16:15.312Z,1.35
2022-08-21T11:18:50.620Z,1.43
2022-08-21T11:21:37.927Z,1.70
2022-08-21T11:24:29.324Z,1.13
2022-08-21T11:27:01.243Z,1.50
2022-08-21T11:32:16.337Z,1.13
2022-08-21T11:35:01.383Z,1.63
2022-08-21T11:37:52.652Z,1.45
2022-08-21T11:40:45.768Z,1.47
2022-08-21T11:43:24.125Z,1.23
2022-08-21T11:46:01.728Z,1.50
2022-08-21T11:48:39.968Z,1.58
2022-08-21T11:51:17.351Z,0.82
2022-08-21T11:53:54.224Z,1.55
2022-08-21T11:56:39.881Z,1.08
2022-08-21T11:59:14.640Z,1.00
2022-08-21T12:01:45.792Z,0.95
2022-08-21T12:04:35.799Z,1.08
2022-08-21T12:07:30.422Z,1.10
2022-08-21T12:09:58.417Z,1.13
2022-08-21T12:12:35.994Z,1.10
2022-08-21T12:15:20.680Z,0.93
2022-08-21T12:18:01.794Z,1.00
2022-08-21T12:20:28.205Z,0.85
2022-08-21T12:23:15.927Z,0.98
2022-08-21T12:26:01.905Z,1.05
2022-08-21T12:28:30.018Z,1.15
2022-08-21T12:30:58.157Z,0.90
2022-08-21T12:33:38.583Z,1.17
2022-08-21T12:36:13.075Z,0.98
2022-08-21T12:38:55.552Z,1.05
2022-08-21T12:41:35.504Z,1.00
2022-08-21T12:44:06.545Z,0.90
2022-08-21T12:46:40.840Z,0.93
2022-08-21T12:49:15.013Z,1.33
2022-08-21T12:51:56.934Z,1.00
2022-08-21T12:54:26.441Z,0.85
2022-08-21T12:57:02.135Z,0.80
2022-08-21T12:59:29.495Z,1.00
2022-08-21T13:01:57.319Z,1.10
2022-08-21T13:04:35.137Z,1.08
2022-08-21T13:07:01.593Z,0.73
2022-08-21T13:09:30.953Z,0.70
2022-08-21T13:11:58.484Z,0.98
2022-08-21T13:14:32.885Z,1.00
2022-08-21T13:17:00.834Z,0.57
2022-08-21T13:19:28.097Z,1.00
2022-08-21T13:21:54.534Z,0.90
2022-08-21T13:24:42.917Z,0.82
2022-08-21T13:27:19.481Z,0.75
2022-08-21T13:29:50.336Z,1.00
2022-08-21T13:32:24.836Z,1.00
2022-08-21T13:34:54.001Z,1.03
2022-08-21T13:37:22.095Z,1.02
2022-08-21T13:39:53.473Z,1.00
2022-08-21T13:42:20.272Z,0.70
2022-08-21T13:44:48.080Z,1.00
2022-08-21T13:47:16.235Z,1.08
2022-08-21T13:49:50.313Z,0.70
2022-08-21T13:52:22.851Z,1.13
2022-08-21T13:55:10.358Z,0.80
2022-08-21T13:57:38.691Z,1.10
2022-08-21T14:00:11.414Z,0.93
2022-08-21T14:02:41.756Z,1.00
2022-08-21T14:05:09.175Z,0.90
2022-08-21T14:07:37.628Z,0.80
2022-08-21T14:10:20.724Z,0.90
2022-08-21T14:12:53.723Z,0.75
2022-08-21T14:15:25.187Z,0.90
2022-08-21T14:17:52.282Z,1.13
2022-08-21T14:20:33.852Z,0.93
2022-08-21T14:23:00.880Z,1.17
2022-08-21T14:25:31.590Z,0.77
2022-08-21T14:28:09.801Z,0.68
2022-08-21T14:30:39.884Z,0.80
2022-08-21T14:33:13.518Z,0.65
2022-08-21T14:35:40.645Z,1.30
2022-08-21T14:38:18.366Z,0.70
2022-08-21T14:40:48.012Z,1.30
2022-08-21T14:43:14.465Z,0.95
2022-08-21T14:45:41.644Z,0.93
2022-08-21T14:48:08.671Z,1.30
2022-08-21T14:50:35.092Z,0.85
2022-08-21T14:53:01.776Z,1.00
2022-08-21T14:55:28.372Z,0.85
2022-08-21T14:57:56.979Z,1.23
2022-08-21T15:00:27.161Z,0.63
2022-08-21T15:03:02.958Z,0.70
2022-08-21T15:05:32.899Z,0.82
2022-08-21T15:08:00.056Z,1.05
2022-08-21T15:10:26.609Z,1.10
2022-08-21T15:12:53.021Z,0.90
2022-08-21T15:15:19.473Z,0.80
2022-08-21T15:17:48.328Z,0.70
2022-08-21T15:20:15.194Z,0.90
2022-08-21T15:22:41.606Z,0.70
2022-08-21T15:25:14.343Z,1.05
2022-08-21T15:27:40.898Z,0.75
2022-08-21T15:30:08.019Z,1.38
2022-08-21T15:32:34.476Z,0.85
2022-08-21T15:35:01.115Z,1.08
2022-08-21T15:37:27.633Z,1.02
2022-08-21T15:39:54.678Z,0.80
2022-08-21T15:42:22.089Z,0.90
2022-08-21T15:44:48.578Z,1.30
2022-08-21T15:47:20.417Z,0.82
2022-08-21T15:49:46.839Z,0.90
2022-08-21T15:52:15.847Z,1.33
2022-08-21T15:54:42.388Z,1.15
2022-08-21T15:57:10.832Z,1.05
2022-08-21T15:59:41.417Z,1.10
2022-08-21T16:02:15.109Z,1.00
2022-08-21T16:04:41.655Z,0.95
2022-08-21T16:07:09.812Z,0.90
2022-08-21T16:09:36.665Z,1.02
2022-08-21T16:12:05.378Z,1.17
2022-08-21T16:14:32.584Z,0.95
2022-08-21T16:16:59.170Z,1.10
2022-08-21T16:19:27.380Z,1.40
2022-08-21T16:21:53.781Z,1.25
2022-08-21T16:24:20.204Z,1.00
2022-08-21T16:26:46.692Z,1.65
2022-08-21T16:29:26.155Z,1.30
2022-08-21T16:31:53.612Z,1.20
2022-08-21T16:34:20.793Z,1.00
2022-08-21T16:36:47.902Z,1.00
2022-08-21T16:39:14.444Z,1.33
2022-08-21T16:41:40.927Z,0.98
2022-08-21T16:44:07.705Z,1.35
2022-08-21T16:46:38.973Z,1.10
2022-08-21T16:49:05.405Z,1.15
2022-08-21T16:51:31.808Z,1.30
2022-08-21T16:53:58.783Z,1.25
2022-08-21T16:56:25.361Z,1.20
2022-08-21T16:58:53.446Z,1.00
2022-08-21T17:01:24.629Z,1.20
2022-08-21T17:03:51.660Z,1.30
2022-08-21T17:06:18.880Z,1.20
2022-08-21T17:08:45.574Z,1.40
2022-08-21T17:11:42.283Z,1.58
2022-08-21T17:14:14.603Z,1.13
2022-08-21T17:16:43.021Z,1.10
2022-08-21T17:19:09.745Z,1.45
2022-08-21T17:21:36.158Z,1.40
2022-08-21T17:24:02.689Z,1.33
2022-08-21T17:26:29.097Z,1.15
2022-08-21T17:28:55.576Z,1.52
2022-08-21T17:31:22.318Z,1.17
2022-08-21T17:33:52.736Z,1.27
2022-08-21T17:36:25.571Z,1.15
2022-08-21T17:38:52.377Z,1.27
2022-08-21T17:41:22.292Z,1.27
2022-08-21T17:43:49.427Z,1.10
2022-08-21T17:46:19.955Z,1.50
2022-08-21T17:48:47.457Z,1.55
2022-08-21T17:51:14.460Z,1.50
2022-08-21T17:53:41.076Z,1.63
2022-08-21T17:56:07.672Z,1.20
2022-08-21T17:58:34.901Z,1.50
2022-08-21T18:01:05.723Z,1.50
2022-08-21T18:03:38.324Z,1.73
2022-08-21T18:06:05.267Z,1.50
2022-08-21T18:08:32.615Z,1.30
2022-08-21T18:10:59.815Z,1.80
2022-08-21T18:13:29.629Z,1.30
2022-08-21T18:15:57.077Z,1.30
2022-08-21T18:18:25.188Z,1.15
2022-08-21T18:20:52.897Z,1.80
2022-08-21T18:23:19.784Z,1.58
2022-08-21T18:25:59.559Z,1.63
2022-08-21T18:28:26.244Z,1.70
2022-08-21T18:30:54.281Z,1.63
2022-08-21T18:33:21.374Z,1.92
2022-08-21T18:35:48.114Z,2.45
2022-08-21T18:38:21.014Z,1.77
2022-08-21T18:40:55.228Z,1.63
2022-08-21T18:43:23.007Z,1.58
2022-08-21T18:45:49.584Z,1.50
2022-08-21T18:48:17.803Z,2.13
2022-08-21T18:50:45.532Z,1.75
2022-08-21T18:53:18.225Z,2.05
2022-08-21T18:55:54.150Z,1.63
2022-08-21T18:58:23.736Z,1.48
2022-08-21T19:00:51.466Z,1.63
2022-08-21T19:03:24.367Z,1.80
2022-08-21T19:05:53.142Z,1.63
2022-08-21T19:08:21.976Z,1.48
2022-08-21T19:10:50.126Z,1.52
2022-08-21T19:13:18.375Z,1.60
2022-08-21T19:15:49.778Z,1.88
2022-08-21T19:18:17.600Z,1.85
2022-08-21T19:20:47.339Z,2.20
2022-08-21T19:23:16.625Z,1.92
2022-08-21T19:25:45.276Z,1.80
2022-08-21T19:28:17.316Z,1.58
2022-08-21T19:33:23.663Z,1.73
2022-08-21T19:36:10.260Z,1.92
2022-08-21T19:38:37.613Z,1.98
2022-08-21T19:41:05.202Z,1.85
2022-08-21T19:43:33.146Z,1.80
2022-08-21T19:46:00.637Z,1.80
2022-08-21T19:48:27.150Z,2.58
2022-08-21T19:50:53.789Z,1.95
2022-08-21T19:53:20.223Z,1.77
2022-08-21T19:55:48.127Z,2.42
2022-08-21T19:58:33.160Z,2.67
2022-08-21T20:00:59.738Z,1.70
2022-08-21T20:03:26.304Z,1.98
2022-08-21T20:08:39.158Z,1.45
2022-08-21T20:11:05.737Z,1.60
2022-08-21T20:13:33.687Z,1.92
2022-08-21T20:16:07.822Z,2.13
2022-08-21T20:18:36.208Z,2.05
2022-08-21T20:21:04.743Z,2.47
2022-08-21T20:23:31.339Z,1.80
2022-08-21T20:26:00.937Z,1.85
2022-08-21T20:28:28.809Z,1.58
2022-08-21T20:30:55.794Z,1.77
2022-08-21T20:33:22.368Z,2.20
2022-08-21T20:35:49.978Z,2.20
2022-08-21T20:38:16.841Z,1.60
2022-08-21T20:40:43.828Z,1.98
2022-08-21T20:43:12.886Z,1.63
2022-08-21T20:45:39.719Z,3.28
2022-08-21T20:48:18.805Z,1.95
2022-08-21T20:50:55.696Z,1.92
2022-08-21T20:53:47.788Z,2.08
2022-08-21T20:56:33.160Z,2.00
2022-08-21T20:59:06.383Z,1.90
2022-08-21T21:01:33.394Z,2.40
2022-08-21T21:04:15.895Z,2.17
2022-08-21T21:06:49.966Z,2.30
2022-08-21T21:09:34.877Z,2.78
2022-08-21T21:12:11.027Z,1.80
2022-08-21T21:14:45.050Z,2.33
2022-08-21T21:17:28.256Z,2.80
2022-08-21T21:20:07.968Z,2.33
2022-08-21T21:22:41.988Z,2.60
2022-08-21T21:25:39.984Z,2.88
2022-08-21T21:28:12.856Z,3.67
2022-08-21T21:30:46.453Z,3.38
2022-08-21T21:33:16.292Z,3.45
2022-08-21T21:35:49.726Z,3.50
2022-08-21T21:38:23.066Z,3.70
2022-08-21T21:41:15.708Z,3.97
2022-08-21T21:43:51.027Z,3.88
2022-08-21T21:46:31.084Z,4.47
2022-08-21T21:49:05.464Z,4.32
2022-08-21T21:51:46.659Z,4.43
2022-08-21T21:54:45.852Z,4.63
2022-08-21T21:57:49.481Z,4.25
2022-08-21T22:00:24.293Z,4.40
2022-08-21T22:03:12.518Z,4.88
2022-08-21T22:05:58.020Z,5.25
2022-08-21T22:08:33.502Z,5.40
2022-08-21T22:11:28.606Z,5.00
2022-08-21T22:14:08.540Z,5.82
2022-08-21T22:16:35.914Z,5.35
2022-08-21T22:19:18.468Z,6.03
2022-08-21T22:22:00.336Z,5.00
2022-08-21T22:24:32.123Z,5.50
2022-08-21T22:27:09.180Z,5.35
2022-08-21T22:29:48.625Z,6.20
2022-08-21T22:32:45.729Z,6.53
2022-08-21T22:35:25.815Z,5.90
2022-08-21T22:37:57.705Z,7.10
2022-08-21T22:40:31.372Z,5.40
2022-08-21T22:42:58.645Z,5.80
2022-08-21T22:45:26.570Z,6.53
2022-08-21T22:47:53.964Z,6.13
2022-08-21T22:50:26.786Z,5.88
2022-08-21T22:53:00.399Z,7.00
2022-08-21T22:55:39.300Z,5.57
2022-08-21T22:58:19.664Z,5.47
2022-08-21T23:00:57.795Z,5.22
2022-08-21T23:03:42.142Z,5.05
2022-08-21T23:06:35.022Z,5.82
2022-08-21T23:09:03.384Z,5.60
2022-08-21T23:11:43.042Z,4.72
2022-08-21T23:14:14.200Z,4.43
2022-08-21T23:16:53.351Z,7.30
2022-08-21T23:19:38.463Z,5.90
2022-08-21T23:25:31.860Z,5.50
2022-08-21T23:28:09.238Z,6.00
2022-08-21T23:30:41.158Z,6.03
2022-08-21T23:33:50.566Z,6.32
2022-08-21T23:36:59.760Z,6.32
2022-08-21T23:39:54.611Z,5.60
2022-08-21T23:42:38.685Z,6.30
2022-08-21T23:45:39.408Z,6.82
2022-08-21T23:48:29.386Z,6.50
2022-08-21T23:51:03.597Z,6.13
2022-08-21T23:53:35.494Z,6.93
2022-08-21T23:56:31.551Z,6.25
2022-08-21T23:59:28.157Z,5.35
